Dansville Municipal Airport


Codes: KDSV/DSV
Name: Dansville Municipal Airport
City: Dansville
Country: United States
Elevation: 662 ft.
Website:
Wikipedia:

Photos at Dansville Municipal Airport


   Photos courtesy of SpottingLog. You can add your own sightings and photos by signing up for a free trial today.



No photos found.

Weather at Dansville Municipal Airport


Time (UTC)DescriptionTempratureWindCloud coverageVisibilityPressureHumidity
15-Apr-2024 18:00Broken Clouds14°C13 mph, W70%10000m1013hPa53%
15-Apr-2024 21:00Scattered Clouds14°C13 mph, NW37%10000m1014hPa54%
16-Apr-2024 00:00Clear Sky9°C7 mph, NW8%10000m1016hPa77%
16-Apr-2024 03:00Clear Sky6°C2 mph, W6%10000m1018hPa83%
16-Apr-2024 06:00Clear Sky5°C2 mph, SW10%10000m1020hPa84%
16-Apr-2024 09:00Clear Sky4°C2 mph, SW3%10000m1021hPa89%
16-Apr-2024 12:00Clear Sky7°C2 mph, SW7%10000m1023hPa79%
16-Apr-2024 15:00Clear Sky12°C7 mph, NW1%10000m1022hPa51%
16-Apr-2024 18:00Clear Sky15°C9 mph, NW3%10000m1021hPa46%
16-Apr-2024 21:00Scattered Clouds14°C9 mph, N40%10000m1021hPa50%
17-Apr-2024 00:00Broken Clouds8°C4 mph, NE56%10000m1023hPa70%
17-Apr-2024 03:00Broken Clouds6°C4 mph, E79%10000m1023hPa68%
17-Apr-2024 06:00Overcast Clouds6°C4 mph, SE89%10000m1022hPa68%
17-Apr-2024 09:00Overcast Clouds5°C4 mph, SE100%10000m1022hPa70%
17-Apr-2024 12:00Overcast Clouds7°C4 mph, SE100%10000m1021hPa69%
17-Apr-2024 15:00Overcast Clouds12°C11 mph, SE100%10000m1018hPa65%
17-Apr-2024 18:00Moderate Rain11°C7 mph, SE100%10000m1016hPa92%
17-Apr-2024 21:00Light Rain11°C9 mph, SE100%10000m1014hPa95%
18-Apr-2024 00:00Light Rain12°C13 mph, SE100%10000m1012hPa95%
18-Apr-2024 03:00Overcast Clouds12°C16 mph, SE99%2581m1010hPa97%
18-Apr-2024 06:00Light Rain12°C13 mph, N100%0m1008hPa97%
18-Apr-2024 09:00Light Rain13°C11 mph, S100%10000m1008hPa94%
18-Apr-2024 12:00Light Rain13°C7 mph, W100%10000m1010hPa95%
18-Apr-2024 15:00Light Rain15°C9 mph, W100%10000m1012hPa84%
18-Apr-2024 18:00Light Rain13°C11 mph, W99%10000m1014hPa84%
18-Apr-2024 21:00Overcast Clouds14°C9 mph, W96%10000m1014hPa75%
19-Apr-2024 00:00Overcast Clouds12°C9 mph, W91%10000m1016hPa78%
19-Apr-2024 03:00Overcast Clouds8°C2 mph, S100%10000m1017hPa92%
19-Apr-2024 06:00Overcast Clouds8°C4 mph, S99%10000m1016hPa95%
19-Apr-2024 09:00Overcast Clouds8°C4 mph, S100%10000m1016hPa92%
19-Apr-2024 12:00Light Rain10°C7 mph, S100%10000m1015hPa89%
19-Apr-2024 15:00Light Rain12°C7 mph, SW100%10000m1014hPa84%
19-Apr-2024 18:00Light Rain11°C9 mph, W100%10000m1012hPa89%
19-Apr-2024 21:00Light Rain10°C9 mph, W100%10000m1012hPa85%
20-Apr-2024 00:00Overcast Clouds9°C11 mph, W93%10000m1012hPa72%
20-Apr-2024 03:00Scattered Clouds7°C13 mph, W47%10000m1013hPa70%
20-Apr-2024 06:00Scattered Clouds4°C9 mph, W45%10000m1014hPa71%
20-Apr-2024 09:00Broken Clouds3°C11 mph, W64%10000m1014hPa82%
20-Apr-2024 12:00Light Snow3°C13 mph, W71%10000m1015hPa74%
20-Apr-2024 15:00Broken Clouds6°C16 mph, NW67%10000m1015hPa49%